createdAt,value
2023-03-26T00:04:10.366Z,17.15
2023-03-26T00:09:08.655Z,17.24
2023-03-26T00:14:06.090Z,17.36
2023-03-26T00:19:03.437Z,17.21
2023-03-26T00:24:03.726Z,17.30
2023-03-26T00:29:02.742Z,17.27
2023-03-26T00:34:03.047Z,17.26
2023-03-26T00:39:00.661Z,17.28
2023-03-26T00:43:59.126Z,17.13
2023-03-26T00:48:58.053Z,16.56
2023-03-26T00:53:56.458Z,16.10
2023-03-26T00:58:53.284Z,16.39
2023-03-26T01:04:08.436Z,16.26
2023-03-26T01:09:15.679Z,15.75
2023-03-26T01:14:18.179Z,15.84
2023-03-26T01:19:25.626Z,15.95
2023-03-26T01:24:23.398Z,15.74
2023-03-26T01:29:30.944Z,15.44
2023-03-26T01:34:37.244Z,15.62
2023-03-26T01:39:41.793Z,15.57
2023-03-26T01:44:45.823Z,15.26
2023-03-26T01:49:42.707Z,15.65
2023-03-26T01:54:40.735Z,15.45
2023-03-26T02:00:04.002Z,15.69
2023-03-26T02:05:16.798Z,15.31
2023-03-26T02:10:17.109Z,15.32
2023-03-26T02:15:16.567Z,15.30
2023-03-26T02:20:18.201Z,15.29
2023-03-26T02:25:17.878Z,15.32
2023-03-26T02:30:18.611Z,15.64
2023-03-26T02:35:18.436Z,15.48
2023-03-26T02:40:18.051Z,15.71
2023-03-26T02:45:16.244Z,15.84
2023-03-26T02:50:53.640Z,15.81
2023-03-26T02:56:17.090Z,15.78
2023-03-26T03:01:30.206Z,15.68
2023-03-26T03:06:30.319Z,15.67
2023-03-26T03:11:29.874Z,15.67
2023-03-26T03:16:27.027Z,15.55
2023-03-26T03:21:26.440Z,15.62
2023-03-26T03:26:27.032Z,15.62
2023-03-26T03:31:26.261Z,15.56
2023-03-26T03:36:27.514Z,15.40
2023-03-26T03:41:31.919Z,15.34
2023-03-26T03:46:32.739Z,15.40
2023-03-26T03:51:30.045Z,15.37
2023-03-26T03:56:30.003Z,15.32
2023-03-26T04:01:47.857Z,15.18
2023-03-26T04:06:54.448Z,15.06
2023-03-26T04:11:52.971Z,15.19
2023-03-26T04:17:26.161Z,15.08
2023-03-26T04:22:35.838Z,14.79
2023-03-26T04:27:36.777Z,14.76
2023-03-26T04:32:49.279Z,14.91
2023-03-26T04:37:47.205Z,14.95
2023-03-26T04:42:48.139Z,15.00
2023-03-26T04:48:14.864Z,14.96
2023-03-26T04:53:15.989Z,15.05
2023-03-26T04:58:33.528Z,15.10
2023-03-26T05:03:32.346Z,15.18
2023-03-26T05:08:34.529Z,15.44
2023-03-26T05:13:31.642Z,15.64
2023-03-26T05:18:34.448Z,15.70
2023-03-26T05:23:32.646Z,15.86
2023-03-26T05:28:45.779Z,16.04
2023-03-26T05:33:50.417Z,16.09
2023-03-26T05:38:48.897Z,16.08
2023-03-26T05:44:05.848Z,15.98
2023-03-26T05:49:03.802Z,15.78
2023-03-26T05:54:04.721Z,15.42
2023-03-26T05:59:28.149Z,15.31
2023-03-26T06:04:45.218Z,14.97
2023-03-26T06:10:18.550Z,14.80
2023-03-26T06:15:16.635Z,14.91
2023-03-26T06:20:37.039Z,14.87
2023-03-26T06:25:41.112Z,14.80
2023-03-26T06:31:04.509Z,14.92
2023-03-26T06:36:07.318Z,15.33
2023-03-26T06:41:07.728Z,15.61
2023-03-26T06:46:25.427Z,17.63
2023-03-26T06:52:02.361Z,19.04
2023-03-26T06:57:31.441Z,19.33
2023-03-26T07:03:04.124Z,20.10
2023-03-26T07:08:26.408Z,19.78
2023-03-26T07:13:41.819Z,20.39
2023-03-26T07:18:57.402Z,21.05
2023-03-26T07:24:01.500Z,22.74
2023-03-26T07:29:26.306Z,24.56
2023-03-26T07:34:49.258Z,26.56
2023-03-26T07:40:05.337Z,27.49
2023-03-26T07:45:42.560Z,28.60
2023-03-26T07:51:00.440Z,30.25
2023-03-26T07:56:20.248Z,31.36
2023-03-26T08:01:45.533Z,32.23
2023-03-26T08:06:53.760Z,33.60
2023-03-26T08:12:29.937Z,34.40
2023-03-26T08:17:34.431Z,33.52
2023-03-26T08:22:36.111Z,32.19
2023-03-26T08:27:39.439Z,30.25
2023-03-26T08:34:39.514Z,28.52
2023-03-26T08:39:16.123Z,26.58
2023-03-26T08:45:01.284Z,25.68
2023-03-26T08:50:21.333Z,24.87
2023-03-26T08:55:44.673Z,24.85
2023-03-26T09:01:08.821Z,24.88
2023-03-26T09:06:40.944Z,25.20
2023-03-26T09:12:23.770Z,25.52
2023-03-26T09:17:55.930Z,25.80
2023-03-26T09:23:17.507Z,26.10
2023-03-26T09:28:56.107Z,26.68
2023-03-26T09:34:04.285Z,26.30
2023-03-26T09:39:10.342Z,26.33
2023-03-26T09:44:55.147Z,25.80
2023-03-26T09:49:57.916Z,25.81
2023-03-26T09:55:25.574Z,25.40
2023-03-26T10:00:28.804Z,25.64
2023-03-26T10:06:04.095Z,25.59
2023-03-26T10:11:11.982Z,24.86
2023-03-26T10:16:22.154Z,24.55
2023-03-26T10:21:28.561Z,25.11
2023-03-26T10:27:08.455Z,25.20
2023-03-26T10:32:22.169Z,25.21
2023-03-26T10:37:30.629Z,24.85
2023-03-26T10:42:47.405Z,24.41
2023-03-26T10:48:15.088Z,24.18
2023-03-26T10:53:21.321Z,24.21
2023-03-26T10:58:23.851Z,24.73
2023-03-26T11:03:42.827Z,25.11
2023-03-26T11:08:45.279Z,24.80
2023-03-26T11:13:51.926Z,24.70
2023-03-26T11:18:54.106Z,24.29
2023-03-26T11:24:04.856Z,23.88
2023-03-26T11:29:32.802Z,23.46
2023-03-26T11:34:34.661Z,23.16
2023-03-26T11:39:44.182Z,23.18
2023-03-26T11:44:46.564Z,22.94
2023-03-26T11:49:47.036Z,22.70
2023-03-26T11:54:47.559Z,22.19
2023-03-26T11:59:57.527Z,22.33
2023-03-26T12:05:12.748Z,22.52
2023-03-26T12:10:22.593Z,22.17
2023-03-26T12:15:21.310Z,22.73
2023-03-26T12:20:34.060Z,22.55
2023-03-26T12:25:32.993Z,22.91
2023-03-26T12:30:35.089Z,22.53
2023-03-26T12:35:34.307Z,22.77
2023-03-26T12:40:36.114Z,22.41
2023-03-26T12:45:40.054Z,22.58
2023-03-26T12:50:50.849Z,22.53
2023-03-26T12:55:59.678Z,21.93
2023-03-26T13:01:05.447Z,22.13
2023-03-26T13:06:28.520Z,21.86
2023-03-26T13:11:35.802Z,21.83
2023-03-26T13:16:44.795Z,21.68
2023-03-26T13:21:59.157Z,21.35
2023-03-26T13:27:09.845Z,21.31
2023-03-26T13:32:15.996Z,20.99
2023-03-26T13:37:21.638Z,21.15
2023-03-26T13:42:42.718Z,21.13
2023-03-26T13:47:46.000Z,21.06
2023-03-26T13:52:47.483Z,20.93
2023-03-26T13:57:50.654Z,20.69
2023-03-26T14:02:56.226Z,20.65
2023-03-26T14:07:57.723Z,20.52
2023-03-26T14:13:00.344Z,20.48
2023-03-26T14:18:06.693Z,20.46
2023-03-26T14:23:24.112Z,20.38
2023-03-26T14:28:41.162Z,20.05
2023-03-26T14:33:59.674Z,20.15
2023-03-26T14:39:13.147Z,19.79
2023-03-26T14:44:26.921Z,20.17
2023-03-26T14:50:19.646Z,20.15
2023-03-26T14:55:33.452Z,20.02
2023-03-26T15:01:07.150Z,20.15
2023-03-26T15:06:48.231Z,20.11
2023-03-26T15:11:53.296Z,19.99
2023-03-26T15:17:34.260Z,20.02
2023-03-26T15:23:14.122Z,19.91
2023-03-26T15:28:48.983Z,20.03
2023-03-26T15:34:20.211Z,20.03
2023-03-26T15:39:37.628Z,19.90
2023-03-26T15:44:54.154Z,19.59
2023-03-26T15:49:59.529Z,19.50
2023-03-26T15:55:00.587Z,19.70
2023-03-26T16:00:21.905Z,19.29
2023-03-26T16:05:30.452Z,19.42
2023-03-26T16:10:37.738Z,19.02
2023-03-26T16:15:35.995Z,18.64
2023-03-26T16:20:34.368Z,18.96
2023-03-26T16:25:34.165Z,18.79
2023-03-26T16:30:32.919Z,18.17
2023-03-26T16:35:41.884Z,18.52
2023-03-26T16:40:59.339Z,18.27
2023-03-26T16:46:06.259Z,18.18
2023-03-26T16:51:16.413Z,17.95
2023-03-26T16:56:17.255Z,17.76
2023-03-26T17:01:26.692Z,17.18
2023-03-26T17:06:31.659Z,17.62
2023-03-26T17:11:41.963Z,17.47
2023-03-26T17:16:46.077Z,17.42
2023-03-26T17:21:52.453Z,17.28
2023-03-26T17:26:57.590Z,17.06
2023-03-26T17:31:59.359Z,17.12
2023-03-26T17:36:58.374Z,17.02
2023-03-26T17:42:10.888Z,16.83
2023-03-26T17:47:34.550Z,16.80
2023-03-26T17:52:47.394Z,16.72
2023-03-26T17:57:47.334Z,16.59
2023-03-26T18:02:51.292Z,16.07
2023-03-26T18:08:36.501Z,16.58
2023-03-26T18:13:49.929Z,16.43
2023-03-26T18:18:51.604Z,16.17
2023-03-26T18:23:50.544Z,16.27
2023-03-26T18:28:52.858Z,16.00
2023-03-26T18:33:55.186Z,16.07
2023-03-26T18:39:03.820Z,16.09
2023-03-26T18:44:07.649Z,16.08
2023-03-26T18:49:05.823Z,16.16
2023-03-26T18:54:06.146Z,15.85
2023-03-26T18:59:06.151Z,16.02
2023-03-26T19:04:06.703Z,16.01
2023-03-26T19:09:07.802Z,15.86
2023-03-26T19:14:17.361Z,16.01
2023-03-26T19:19:18.905Z,15.98
2023-03-26T19:24:20.665Z,15.84
2023-03-26T19:29:22.830Z,15.79
2023-03-26T19:34:31.042Z,15.78
2023-03-26T19:39:38.607Z,15.84
2023-03-26T19:44:39.099Z,15.82
2023-03-26T19:49:47.384Z,15.82
2023-03-26T19:54:59.430Z,15.51
2023-03-26T19:59:58.257Z,15.80
2023-03-26T20:04:55.237Z,15.34
2023-03-26T20:09:52.629Z,15.09
2023-03-26T20:14:49.640Z,15.34
2023-03-26T20:19:47.534Z,15.69
2023-03-26T20:24:44.612Z,15.53
2023-03-26T20:29:41.802Z,15.57
2023-03-26T20:34:39.367Z,15.51
2023-03-26T20:39:37.870Z,15.42
2023-03-26T20:44:35.230Z,15.19
2023-03-26T20:49:32.411Z,15.10
2023-03-26T20:54:29.743Z,15.05
2023-03-26T20:59:28.346Z,15.00
2023-03-26T21:04:25.840Z,14.83
2023-03-26T21:09:24.753Z,14.54
2023-03-26T21:14:25.293Z,14.65
2023-03-26T21:19:23.699Z,14.18
2023-03-26T21:24:32.518Z,14.69
2023-03-26T21:29:30.005Z,14.71
2023-03-26T21:34:28.594Z,14.53
2023-03-26T21:39:25.992Z,14.21
2023-03-26T21:44:23.523Z,14.51
2023-03-26T21:49:21.067Z,14.47
2023-03-26T21:54:24.536Z,14.41
2023-03-26T21:59:33.290Z,14.07
2023-03-26T22:04:36.277Z,14.29
2023-03-26T22:09:36.540Z,14.28
2023-03-26T22:14:33.908Z,14.24
2023-03-26T22:19:30.822Z,14.20
2023-03-26T22:24:27.741Z,13.98
2023-03-26T22:29:25.404Z,13.98
2023-03-26T22:34:23.064Z,14.07
2023-03-26T22:39:20.217Z,14.03
2023-03-26T22:44:20.365Z,13.96
2023-03-26T22:49:18.288Z,13.86
2023-03-26T22:54:15.018Z,13.78
2023-03-26T22:59:12.570Z,13.57
2023-03-26T23:04:09.597Z,13.33
2023-03-26T23:09:07.345Z,13.25
2023-03-26T23:14:04.121Z,13.04
2023-03-26T23:19:01.042Z,12.91
2023-03-26T23:24:00.920Z,12.35
2023-03-26T23:28:58.437Z,12.88
2023-03-26T23:33:55.758Z,12.91
2023-03-26T23:38:53.343Z,12.77
2023-03-26T23:43:54.192Z,12.94
2023-03-26T23:48:54.152Z,12.65
2023-03-26T23:53:51.875Z,12.97
2023-03-26T23:58:48.956Z,12.96
